createdAt,value
2023-04-08T00:00:50.210Z,12.80
2023-04-08T00:03:23.471Z,11.40
2023-04-08T00:05:52.244Z,11.40
2023-04-08T00:08:20.469Z,11.60
2023-04-08T00:10:48.743Z,11.10
2023-04-08T00:13:17.431Z,12.20
2023-04-08T00:15:45.887Z,11.60
2023-04-08T00:18:16.002Z,11.80
2023-04-08T00:20:44.629Z,11.50
2023-04-08T00:23:12.849Z,11.40
2023-04-08T00:25:41.318Z,11.40
2023-04-08T00:28:09.620Z,12.20
2023-04-08T00:30:37.857Z,11.70
2023-04-08T00:33:06.145Z,11.90
2023-04-08T00:35:34.933Z,11.60
2023-04-08T00:38:03.758Z,11.80
2023-04-08T00:40:32.000Z,11.20
2023-04-08T00:43:00.633Z,11.50
2023-04-08T00:45:28.824Z,11.60
2023-04-08T00:47:57.729Z,11.70
2023-04-08T00:50:26.070Z,12.10
2023-04-08T00:52:54.352Z,11.80
2023-04-08T00:55:22.652Z,11.10
2023-04-08T00:57:53.414Z,11.40
2023-04-08T01:00:21.657Z,11.70
2023-04-08T01:03:12.012Z,11.00
2023-04-08T01:05:50.532Z,11.80
2023-04-08T01:08:19.757Z,11.30
2023-04-08T01:10:52.833Z,10.90
2023-04-08T01:13:24.650Z,11.60
2023-04-08T01:15:55.053Z,11.00
2023-04-08T01:18:24.368Z,11.10
2023-04-08T01:20:54.342Z,11.60
2023-04-08T01:23:28.508Z,10.50
2023-04-08T01:25:57.637Z,10.80
2023-04-08T01:28:29.842Z,10.70
2023-04-08T01:31:00.810Z,10.60
2023-04-08T01:33:30.918Z,10.70
2023-04-08T01:36:01.190Z,10.60
2023-04-08T01:38:32.205Z,10.30
2023-04-08T01:41:00.888Z,10.30
2023-04-08T01:43:31.931Z,10.80
2023-04-08T01:46:01.246Z,10.60
2023-04-08T01:48:30.608Z,10.70
2023-04-08T01:51:00.392Z,11.00
2023-04-08T01:53:28.654Z,11.20
2023-04-08T01:56:02.504Z,11.40
2023-04-08T01:58:37.631Z,10.70
2023-04-08T02:01:17.477Z,10.60
2023-04-08T02:06:15.720Z,9.70
2023-04-08T02:08:43.998Z,10.30
2023-04-08T02:11:12.820Z,9.70
2023-04-08T02:13:41.348Z,9.00
2023-04-08T02:16:24.932Z,10.30
2023-04-08T02:19:01.155Z,9.40
2023-04-08T02:21:39.109Z,9.60
2023-04-08T02:24:09.771Z,9.60
2023-04-08T02:26:39.738Z,10.10
2023-04-08T02:29:12.976Z,9.80
2023-04-08T02:31:43.232Z,10.60
2023-04-08T02:34:12.831Z,10.80
2023-04-08T02:36:43.165Z,9.90
2023-04-08T02:39:29.018Z,10.30
2023-04-08T02:41:57.239Z,11.10
2023-04-08T02:44:25.590Z,10.30
2023-04-08T02:46:54.030Z,10.60
2023-04-08T02:49:22.362Z,10.80
2023-04-08T02:51:50.764Z,10.40
2023-04-08T02:54:19.010Z,11.30
2023-04-08T02:56:47.241Z,10.70
2023-04-08T02:59:15.612Z,10.60
2023-04-08T03:01:43.898Z,10.50
2023-04-08T03:04:12.171Z,10.80
2023-04-08T03:06:40.411Z,10.20
2023-04-08T03:09:08.638Z,10.30
2023-04-08T03:11:36.900Z,10.70
2023-04-08T03:14:05.234Z,11.70
2023-04-08T03:16:33.607Z,10.70
2023-04-08T03:19:02.580Z,11.20
2023-04-08T03:21:32.006Z,10.80
2023-04-08T03:24:00.565Z,10.50
2023-04-08T03:26:29.420Z,11.20
2023-04-08T03:28:57.885Z,11.10
2023-04-08T03:31:26.592Z,10.70
2023-04-08T03:33:54.867Z,10.70
2023-04-08T03:36:23.119Z,11.00
2023-04-08T03:38:51.685Z,10.20
2023-04-08T03:41:20.126Z,11.20
2023-04-08T03:43:48.406Z,11.60
2023-04-08T03:46:16.819Z,11.40
2023-04-08T03:48:45.051Z,11.40
2023-04-08T03:51:13.319Z,11.20
2023-04-08T03:53:41.586Z,10.20
2023-04-08T03:56:09.809Z,11.40
2023-04-08T03:58:38.069Z,11.10
2023-04-08T04:01:06.387Z,11.50
2023-04-08T04:03:34.625Z,11.90
2023-04-08T04:06:03.176Z,12.10
2023-04-08T04:08:31.413Z,11.00
2023-04-08T04:11:00.374Z,11.90
2023-04-08T04:13:29.325Z,11.70
2023-04-08T04:15:57.754Z,11.80
2023-04-08T04:18:26.011Z,10.90
2023-04-08T04:20:54.703Z,10.60
2023-04-08T04:23:24.636Z,10.80
2023-04-08T04:28:20.930Z,10.50
2023-04-08T04:30:49.254Z,10.90
2023-04-08T04:33:17.440Z,11.50
2023-04-08T04:35:45.958Z,11.40
2023-04-08T04:38:14.294Z,11.50
2023-04-08T04:40:42.478Z,11.30
2023-04-08T04:43:11.640Z,10.10
2023-04-08T04:45:39.960Z,9.60
2023-04-08T04:48:08.379Z,8.80
2023-04-08T04:50:36.606Z,10.10
2023-04-08T04:53:04.896Z,11.10
2023-04-08T04:55:33.067Z,12.20
2023-04-08T04:58:01.992Z,10.30
2023-04-08T05:00:30.818Z,11.80
2023-04-08T05:02:59.133Z,11.40
2023-04-08T05:05:27.414Z,11.20
2023-04-08T05:07:55.905Z,11.60
2023-04-08T05:10:24.093Z,11.80
2023-04-08T05:12:52.306Z,11.60
2023-04-08T05:15:21.378Z,11.20
2023-04-08T05:17:49.640Z,11.70
2023-04-08T05:20:18.128Z,12.60
2023-04-08T05:22:46.454Z,11.80
2023-04-08T05:25:14.654Z,11.50
2023-04-08T05:27:42.883Z,11.30
2023-04-08T05:30:11.929Z,11.40
2023-04-08T05:32:40.144Z,11.50
2023-04-08T05:35:09.828Z,11.60
2023-04-08T05:37:38.434Z,11.40
2023-04-08T05:40:07.191Z,11.70
2023-04-08T05:42:35.890Z,12.00
2023-04-08T05:45:05.687Z,11.80
2023-04-08T05:47:34.073Z,12.10
2023-04-08T05:50:02.433Z,11.60
2023-04-08T05:52:30.775Z,11.80
2023-04-08T05:54:58.934Z,14.20
2023-04-08T05:57:27.098Z,41.10
2023-04-08T05:59:55.389Z,38.10
2023-04-08T06:02:23.704Z,25.70
2023-04-08T06:04:52.129Z,33.40
2023-04-08T06:07:20.673Z,14.90
2023-04-08T06:09:48.856Z,12.90
2023-04-08T06:12:17.047Z,12.40
2023-04-08T06:14:45.513Z,12.10
2023-04-08T06:17:13.739Z,15.40
2023-04-08T06:19:42.312Z,14.30
2023-04-08T06:22:10.591Z,15.30
2023-04-08T06:24:39.218Z,12.80
2023-04-08T06:27:07.444Z,17.30
2023-04-08T06:29:35.706Z,21.60
2023-04-08T06:32:04.131Z,23.60
2023-04-08T06:34:32.732Z,26.50
2023-04-08T06:37:01.161Z,25.40
2023-04-08T06:39:29.619Z,31.00
2023-04-08T06:41:59.639Z,28.80
2023-04-08T06:44:28.242Z,24.40
2023-04-08T06:46:56.726Z,12.40
2023-04-08T06:49:25.246Z,17.10
2023-04-08T06:51:54.360Z,15.40
2023-04-08T06:54:22.595Z,16.40
2023-04-08T06:56:51.738Z,16.40
2023-04-08T06:59:20.352Z,16.40
2023-04-08T07:01:48.693Z,15.20
2023-04-08T07:04:17.188Z,15.70
2023-04-08T07:06:46.035Z,15.40
2023-04-08T07:09:14.336Z,16.50
2023-04-08T07:11:42.525Z,16.20
2023-04-08T07:14:12.037Z,15.90
2023-04-08T07:16:40.629Z,16.10
2023-04-08T07:19:08.926Z,12.90
2023-04-08T07:21:37.298Z,14.80
2023-04-08T07:24:06.099Z,14.80
2023-04-08T07:26:34.346Z,15.20
2023-04-08T07:29:02.599Z,15.80
2023-04-08T07:31:31.015Z,14.90
2023-04-08T07:33:59.397Z,14.60
2023-04-08T07:36:28.397Z,15.90
2023-04-08T07:38:56.708Z,16.20
2023-04-08T07:41:43.688Z,21.90
2023-04-08T07:44:12.067Z,22.80
2023-04-08T07:46:40.701Z,21.60
2023-04-08T07:49:10.027Z,17.00
2023-04-08T07:51:38.627Z,16.80
2023-04-08T07:54:06.884Z,14.60
2023-04-08T07:56:35.459Z,14.30
2023-04-08T07:59:03.946Z,16.70
2023-04-08T08:01:35.181Z,23.50
2023-04-08T08:04:04.456Z,17.40
2023-04-08T08:06:32.905Z,27.90
2023-04-08T08:09:01.980Z,34.50
2023-04-08T08:11:31.608Z,35.10
2023-04-08T08:14:00.200Z,22.80
2023-04-08T08:16:34.750Z,19.90
2023-04-08T08:19:04.892Z,15.50
2023-04-08T08:21:37.955Z,16.90
2023-04-08T08:24:06.929Z,16.80
2023-04-08T08:26:37.896Z,17.10
2023-04-08T08:29:09.131Z,16.10
2023-04-08T08:31:37.747Z,16.30
2023-04-08T08:34:06.487Z,15.30
2023-04-08T08:36:35.067Z,15.20
2023-04-08T08:39:03.398Z,16.60
2023-04-08T08:41:37.976Z,19.50
2023-04-08T08:44:07.672Z,25.30
2023-04-08T08:46:37.409Z,18.30
2023-04-08T08:49:06.169Z,18.40
2023-04-08T08:51:35.204Z,18.30
2023-04-08T08:54:04.921Z,20.60
2023-04-08T08:56:35.363Z,22.80
2023-04-08T08:59:03.648Z,17.60
2023-04-08T09:01:38.710Z,16.60
2023-04-08T09:04:20.356Z,24.50
2023-04-08T09:07:10.719Z,17.70
2023-04-08T09:09:59.234Z,23.90
2023-04-08T09:12:28.688Z,20.00
2023-04-08T09:15:09.161Z,17.10
2023-04-08T09:17:39.892Z,17.60
2023-04-08T09:20:13.247Z,17.30
2023-04-08T09:22:54.044Z,16.10
2023-04-08T09:25:26.666Z,14.50
2023-04-08T09:28:10.968Z,15.30
2023-04-08T09:31:02.538Z,21.50
2023-04-08T09:33:32.361Z,16.80
2023-04-08T09:36:00.841Z,22.20
2023-04-08T09:38:29.373Z,19.50
2023-04-08T09:40:59.362Z,21.20
2023-04-08T09:43:27.752Z,19.20
2023-04-08T09:45:58.413Z,23.00
2023-04-08T09:48:33.297Z,21.20
2023-04-08T09:51:04.750Z,27.70
2023-04-08T09:53:41.764Z,24.60
2023-04-08T09:56:14.327Z,36.00
2023-04-08T09:59:09.992Z,42.50
2023-04-08T10:01:41.514Z,27.50
2023-04-08T10:04:17.351Z,32.20
2023-04-08T10:06:54.420Z,31.70
2023-04-08T10:09:24.680Z,20.20
2023-04-08T10:11:56.351Z,19.50
2023-04-08T10:14:32.093Z,17.30
2023-04-08T10:17:25.513Z,22.30
2023-04-08T10:19:54.555Z,19.20
2023-04-08T10:22:29.070Z,16.90
2023-04-08T10:25:16.068Z,19.90
2023-04-08T10:27:45.784Z,16.30
2023-04-08T10:30:26.807Z,16.90
2023-04-08T10:33:02.242Z,17.50
2023-04-08T10:35:32.167Z,19.30
2023-04-08T10:38:01.391Z,18.80
2023-04-08T10:40:37.755Z,19.70
2023-04-08T10:43:06.231Z,17.10
2023-04-08T10:45:35.116Z,17.20
2023-04-08T10:48:19.455Z,16.30
2023-04-08T10:51:04.053Z,108.00
2023-04-08T10:53:34.870Z,25.40
2023-04-08T10:56:07.501Z,16.40
2023-04-08T10:58:37.230Z,16.50
2023-04-08T11:01:07.607Z,16.60
2023-04-08T11:03:39.761Z,16.10
2023-04-08T11:06:08.730Z,14.00
2023-04-08T11:08:37.370Z,16.30
2023-04-08T11:11:09.446Z,14.30
2023-04-08T11:13:52.761Z,14.40
2023-04-08T11:16:23.325Z,15.10
2023-04-08T11:18:52.583Z,15.80
2023-04-08T11:21:22.503Z,15.40
2023-04-08T11:23:52.168Z,14.20
2023-04-08T11:26:21.364Z,14.90
2023-04-08T11:28:52.134Z,14.50
2023-04-08T11:31:24.659Z,17.30
2023-04-08T11:33:55.629Z,21.00
2023-04-08T11:36:24.239Z,19.00
2023-04-08T11:38:54.642Z,16.40
2023-04-08T11:41:23.255Z,17.10
2023-04-08T11:43:56.633Z,16.90
2023-04-08T11:46:25.251Z,18.90
2023-04-08T11:49:04.196Z,22.70
2023-04-08T11:51:34.840Z,17.70
2023-04-08T11:54:07.676Z,14.20
2023-04-08T11:56:47.325Z,16.70
2023-04-08T11:59:15.762Z,13.30
2023-04-08T12:01:44.115Z,14.20
2023-04-08T12:04:12.651Z,14.10
2023-04-08T12:06:43.785Z,12.40
2023-04-08T12:09:13.013Z,13.50
2023-04-08T12:11:41.745Z,13.10
2023-04-08T12:14:10.170Z,13.10
2023-04-08T12:16:38.630Z,13.40
2023-04-08T12:19:07.524Z,13.20
2023-04-08T12:21:36.344Z,12.80
2023-04-08T12:24:04.681Z,13.00
2023-04-08T12:26:32.985Z,13.50
2023-04-08T12:29:01.831Z,13.50
2023-04-08T12:31:30.281Z,12.20
2023-04-08T12:33:58.617Z,14.60
2023-04-08T12:36:27.572Z,13.40
2023-04-08T12:38:56.866Z,14.20
2023-04-08T12:41:25.388Z,13.00
2023-04-08T12:43:53.966Z,13.50
2023-04-08T12:46:22.994Z,13.30
2023-04-08T12:48:59.971Z,13.30
2023-04-08T12:51:32.572Z,12.40
2023-04-08T12:54:01.830Z,12.60
2023-04-08T12:56:31.940Z,13.00
2023-04-08T12:59:01.633Z,12.30
2023-04-08T13:06:28.896Z,12.50
2023-04-08T13:08:57.277Z,11.30
2023-04-08T13:11:25.657Z,12.80
2023-04-08T13:13:54.378Z,11.60
2023-04-08T13:16:22.880Z,12.10
2023-04-08T13:18:52.836Z,11.70
2023-04-08T13:21:21.636Z,12.70
2023-04-08T13:23:49.915Z,12.80
2023-04-08T13:26:18.227Z,12.70
2023-04-08T13:28:56.612Z,13.30
2023-04-08T13:31:26.059Z,11.80
2023-04-08T13:33:57.679Z,16.60
2023-04-08T13:36:29.060Z,12.50
2023-04-08T13:38:58.377Z,12.90
2023-04-08T13:41:28.466Z,11.80
2023-04-08T13:43:57.077Z,12.60
2023-04-08T13:46:25.414Z,12.70
2023-04-08T13:48:54.115Z,12.90
2023-04-08T13:51:22.563Z,12.60
2023-04-08T13:53:50.849Z,12.00
2023-04-08T13:56:19.180Z,12.60
2023-04-08T13:58:55.186Z,12.30
2023-04-08T14:01:25.791Z,13.10
2023-04-08T14:03:54.289Z,13.10
2023-04-08T14:06:22.539Z,13.60
2023-04-08T14:08:51.077Z,14.10
2023-04-08T14:11:19.621Z,15.60
2023-04-08T14:13:47.945Z,15.80
2023-04-08T14:16:16.967Z,15.60
2023-04-08T14:18:45.682Z,16.10
2023-04-08T14:21:15.862Z,18.10
2023-04-08T14:23:44.215Z,19.70
2023-04-08T14:26:13.582Z,18.80
2023-04-08T14:28:41.926Z,18.70
2023-04-08T14:31:10.737Z,19.00
2023-04-08T14:33:39.910Z,18.90
2023-04-08T14:36:09.546Z,19.20
2023-04-08T14:38:39.454Z,18.70
2023-04-08T14:43:36.803Z,19.50
2023-04-08T14:46:05.206Z,19.40
2023-04-08T14:48:33.640Z,19.10
2023-04-08T14:51:02.147Z,18.90
2023-04-08T14:53:30.459Z,19.40
2023-04-08T14:55:58.754Z,17.60
2023-04-08T14:58:27.028Z,17.50
2023-04-08T15:00:55.966Z,19.10
2023-04-08T15:03:24.406Z,26.10
2023-04-08T15:05:53.413Z,21.40
2023-04-08T15:08:22.049Z,19.80
2023-04-08T15:10:50.653Z,28.10
2023-04-08T15:13:18.951Z,27.50
2023-04-08T15:15:47.368Z,19.10
2023-04-08T15:18:15.740Z,19.70
2023-04-08T15:20:43.997Z,20.30
2023-04-08T15:23:12.477Z,19.90
2023-04-08T15:25:40.974Z,21.50
2023-04-08T15:28:13.244Z,21.50
2023-04-08T15:30:41.938Z,21.10
2023-04-08T15:33:10.768Z,19.10
2023-04-08T15:35:39.476Z,19.30
2023-04-08T15:38:08.110Z,18.80
2023-04-08T15:40:36.757Z,18.70
2023-04-08T15:43:05.172Z,19.70
2023-04-08T15:45:33.727Z,18.30
2023-04-08T15:48:03.166Z,18.10
2023-04-08T15:50:31.637Z,15.40
2023-04-08T15:53:00.032Z,17.30
2023-04-08T15:55:28.482Z,15.80
2023-04-08T15:57:57.386Z,15.70
2023-04-08T16:00:26.162Z,16.20
2023-04-08T16:02:54.808Z,15.50
2023-04-08T16:05:23.264Z,14.20
2023-04-08T16:07:52.047Z,13.60
2023-04-08T16:10:20.472Z,14.70
2023-04-08T16:12:49.686Z,33.60
2023-04-08T16:15:18.009Z,25.50
2023-04-08T16:17:52.031Z,24.80
2023-04-08T16:20:21.266Z,25.10
2023-04-08T16:22:50.453Z,24.70
2023-04-08T16:25:19.142Z,17.40
2023-04-08T16:27:50.328Z,16.00
2023-04-08T16:30:18.745Z,16.20
2023-04-08T16:32:47.152Z,13.50
2023-04-08T16:35:15.813Z,12.60
2023-04-08T16:37:44.126Z,13.60
2023-04-08T16:40:12.662Z,14.60
2023-04-08T16:42:41.922Z,13.60
2023-04-08T16:45:11.110Z,13.90
2023-04-08T16:47:41.928Z,14.20
2023-04-08T16:50:11.443Z,15.30
2023-04-08T16:52:40.189Z,17.50
2023-04-08T16:55:09.001Z,17.70
2023-04-08T16:57:37.369Z,18.40
2023-04-08T17:00:06.914Z,17.90
2023-04-08T17:02:35.631Z,26.50
2023-04-08T17:05:04.365Z,17.10
2023-04-08T17:07:32.873Z,16.10
2023-04-08T17:10:01.324Z,16.80
2023-04-08T17:12:29.803Z,72.50
2023-04-08T17:14:58.188Z,81.70
2023-04-08T17:17:26.481Z,77.10
2023-04-08T17:19:54.864Z,35.30
2023-04-08T17:22:23.189Z,15.10
2023-04-08T17:24:51.441Z,14.30
2023-04-08T17:27:19.883Z,16.70
2023-04-08T17:29:48.189Z,21.80
2023-04-08T17:32:16.955Z,20.60
2023-04-08T17:34:45.276Z,15.00
2023-04-08T17:37:13.717Z,12.40
2023-04-08T17:39:43.006Z,12.80
2023-04-08T17:42:11.813Z,11.60
2023-04-08T17:44:42.430Z,11.10
2023-04-08T17:47:10.747Z,12.70
2023-04-08T17:49:39.202Z,12.20
2023-04-08T17:52:07.916Z,12.10
2023-04-08T17:54:36.212Z,12.30
2023-04-08T17:57:04.556Z,12.80
2023-04-08T17:59:33.025Z,11.80
2023-04-08T18:02:01.466Z,12.80
2023-04-08T18:04:30.227Z,12.60
2023-04-08T18:06:58.575Z,13.30
2023-04-08T18:09:26.847Z,12.10
2023-04-08T18:11:55.114Z,12.40
2023-04-08T18:14:23.305Z,13.00
2023-04-08T18:16:51.596Z,12.30
2023-04-08T18:19:20.001Z,13.50
2023-04-08T18:21:48.301Z,13.50
2023-04-08T18:24:16.693Z,13.00
2023-04-08T18:26:49.143Z,13.00
2023-04-08T18:29:22.688Z,12.90
2023-04-08T18:31:51.092Z,13.50
2023-04-08T18:34:20.997Z,15.60
2023-04-08T18:36:52.874Z,16.20
2023-04-08T18:39:21.668Z,14.80
2023-04-08T18:41:51.024Z,13.90
2023-04-08T18:44:19.459Z,14.20
2023-04-08T18:46:47.810Z,14.50
2023-04-08T18:49:16.114Z,14.20
2023-04-08T18:52:49.210Z,14.50
2023-04-08T18:56:45.141Z,13.60
2023-04-08T18:59:36.415Z,12.90
2023-04-08T19:02:07.532Z,13.90
2023-04-08T19:04:36.025Z,14.70
2023-04-08T19:07:04.403Z,14.90
2023-04-08T19:09:32.855Z,13.20
2023-04-08T19:12:01.859Z,13.50
2023-04-08T19:14:30.508Z,14.40
2023-04-08T19:16:58.728Z,12.80
2023-04-08T19:19:26.966Z,13.90
2023-04-08T19:21:55.311Z,13.90
2023-04-08T19:24:23.707Z,13.30
2023-04-08T19:26:53.383Z,13.80
2023-04-08T19:29:23.640Z,13.70
2023-04-08T19:31:53.063Z,14.00
2023-04-08T19:34:21.424Z,14.90
2023-04-08T19:36:49.872Z,14.60
2023-04-08T19:39:18.856Z,15.80
2023-04-08T19:41:47.543Z,16.90
2023-04-08T19:44:16.256Z,17.00
2023-04-08T19:46:44.654Z,18.10
2023-04-08T19:49:13.048Z,17.80
2023-04-08T19:51:41.359Z,20.00
2023-04-08T19:54:10.007Z,18.30
2023-04-08T19:56:38.470Z,18.10
2023-04-08T19:59:07.003Z,17.00
2023-04-08T20:01:36.139Z,15.70
2023-04-08T20:04:04.674Z,15.60
2023-04-08T20:06:35.001Z,14.20
2023-04-08T20:09:05.846Z,15.30
2023-04-08T20:11:34.582Z,14.90
2023-04-08T20:14:08.064Z,15.70
2023-04-08T20:16:36.543Z,14.30
2023-04-08T20:19:04.829Z,14.40
2023-04-08T20:21:34.147Z,15.20
2023-04-08T20:24:02.502Z,13.50
2023-04-08T20:26:30.801Z,14.30
2023-04-08T20:28:59.408Z,13.50
2023-04-08T20:31:28.188Z,13.60
2023-04-08T20:33:56.697Z,13.20
2023-04-08T20:36:25.417Z,13.20
2023-04-08T20:38:55.381Z,13.70
2023-04-08T20:41:25.999Z,13.00
2023-04-08T20:43:55.492Z,12.00
2023-04-08T20:46:24.873Z,12.40
2023-04-08T20:48:53.830Z,12.30
2023-04-08T20:51:22.442Z,12.90
2023-04-08T20:53:50.998Z,14.70
2023-04-08T20:56:20.401Z,14.60
2023-04-08T20:58:51.193Z,14.00
2023-04-08T21:01:19.861Z,12.70
2023-04-08T21:03:49.361Z,13.00
2023-04-08T21:06:19.006Z,14.20
2023-04-08T21:08:48.138Z,14.60
2023-04-08T21:11:17.062Z,12.50
2023-04-08T21:13:48.125Z,13.10
2023-04-08T21:16:17.528Z,15.20
2023-04-08T21:18:48.873Z,12.80
2023-04-08T21:21:17.227Z,12.60
2023-04-08T21:23:45.539Z,12.40
2023-04-08T21:26:13.861Z,13.10
2023-04-08T21:28:42.174Z,20.80
2023-04-08T21:31:12.734Z,24.20
2023-04-08T21:33:41.148Z,23.40
2023-04-08T21:36:09.753Z,23.50
2023-04-08T21:38:38.026Z,18.40
2023-04-08T21:41:06.318Z,19.00
2023-04-08T21:43:34.722Z,17.20
2023-04-08T21:46:03.844Z,15.80
2023-04-08T21:48:32.211Z,19.40
2023-04-08T21:51:01.187Z,18.10
2023-04-08T21:53:29.434Z,15.80
2023-04-08T21:55:57.784Z,13.70
2023-04-08T21:58:28.315Z,11.70
2023-04-08T22:00:56.805Z,12.10
2023-04-08T22:03:25.334Z,12.40
2023-04-08T22:05:54.637Z,13.50
2023-04-08T22:08:23.297Z,13.20
2023-04-08T22:10:52.012Z,13.00
2023-04-08T22:13:21.448Z,13.50
2023-04-08T22:15:49.795Z,12.30
2023-04-08T22:18:18.235Z,12.20
2023-04-08T22:20:46.569Z,10.30
2023-04-08T22:23:18.315Z,12.80
2023-04-08T22:25:50.607Z,13.40
2023-04-08T22:28:19.155Z,13.40
2023-04-08T22:30:47.861Z,13.10
2023-04-08T22:33:16.668Z,12.50
2023-04-08T22:35:44.916Z,12.80
2023-04-08T22:38:13.220Z,12.10
2023-04-08T22:40:44.204Z,12.40
2023-04-08T22:43:12.524Z,13.10
2023-04-08T22:45:40.821Z,11.80
2023-04-08T22:48:09.191Z,12.40
2023-04-08T22:50:37.605Z,12.50
2023-04-08T22:53:06.011Z,11.40
2023-04-08T22:55:34.271Z,12.20
2023-04-08T22:58:02.581Z,12.70
2023-04-08T23:00:31.121Z,12.60
2023-04-08T23:03:05.636Z,12.80
2023-04-08T23:05:34.040Z,13.00
2023-04-08T23:08:02.943Z,11.80
2023-04-08T23:10:31.611Z,11.70
2023-04-08T23:12:59.975Z,12.40
2023-04-08T23:15:28.321Z,12.90
2023-04-08T23:17:56.731Z,12.80
2023-04-08T23:20:25.019Z,12.20
2023-04-08T23:22:53.877Z,12.50
2023-04-08T23:25:22.100Z,12.90
2023-04-08T23:27:50.461Z,13.10
2023-04-08T23:30:18.730Z,12.50
2023-04-08T23:32:47.100Z,12.50
2023-04-08T23:35:16.689Z,12.70
2023-04-08T23:37:45.731Z,13.10
2023-04-08T23:40:14.417Z,12.60
2023-04-08T23:42:42.775Z,13.50
2023-04-08T23:45:11.370Z,13.60
2023-04-08T23:47:40.004Z,14.30
2023-04-08T23:50:09.724Z,13.70
2023-04-08T23:52:38.115Z,15.20
2023-04-08T23:55:07.015Z,14.30
2023-04-08T23:57:35.423Z,15.30
